createdAt,value
2017-11-06T00:00:54.444Z,94.04
2017-11-06T00:03:23.218Z,94.33
2017-11-06T00:05:51.501Z,94.44
2017-11-06T00:08:19.807Z,95.50
2017-11-06T00:10:48.136Z,95.95
2017-11-06T00:13:16.408Z,96.19
2017-11-06T00:15:44.688Z,96.01
2017-11-06T00:18:12.965Z,96.50
2017-11-06T00:20:41.236Z,97.07
2017-11-06T00:23:09.511Z,97.47
2017-11-06T00:25:37.784Z,97.12
2017-11-06T00:28:06.081Z,96.69
2017-11-06T00:30:34.374Z,95.62
2017-11-06T00:33:02.657Z,95.45
2017-11-06T00:35:30.928Z,95.49
2017-11-06T00:37:59.216Z,94.82
2017-11-06T00:40:27.488Z,94.91
2017-11-06T00:42:55.771Z,94.86
2017-11-06T00:45:24.046Z,94.97
2017-11-06T00:47:52.342Z,94.67
2017-11-06T00:50:20.603Z,94.44
2017-11-06T00:52:48.880Z,94.42
2017-11-06T00:55:17.152Z,94.22
2017-11-06T00:57:45.436Z,93.62
2017-11-06T01:00:13.727Z,93.27
2017-11-06T01:02:42.003Z,93.18
2017-11-06T01:05:10.285Z,94.17
2017-11-06T01:07:39.316Z,96.94
2017-11-06T01:10:07.593Z,96.61
2017-11-06T01:12:35.870Z,96.02
2017-11-06T01:15:04.152Z,95.81
2017-11-06T01:17:32.452Z,96.11
2017-11-06T01:20:00.732Z,95.80
2017-11-06T01:22:29.022Z,95.45
2017-11-06T01:24:57.309Z,95.20
2017-11-06T01:27:26.361Z,94.95
2017-11-06T01:29:54.650Z,95.07
2017-11-06T01:32:22.917Z,94.88
2017-11-06T01:34:51.192Z,94.75
2017-11-06T01:37:19.469Z,94.32
2017-11-06T01:39:47.750Z,94.47
2017-11-06T01:42:16.025Z,94.21
2017-11-06T01:44:44.304Z,94.79
2017-11-06T01:47:12.597Z,94.62
2017-11-06T01:49:40.893Z,94.18
2017-11-06T01:52:09.172Z,94.15
2017-11-06T01:54:38.221Z,93.96
2017-11-06T01:57:06.500Z,93.45
2017-11-06T01:59:34.812Z,93.35
2017-11-06T02:02:03.105Z,93.27
2017-11-06T02:04:31.455Z,93.35
2017-11-06T02:06:59.733Z,94.21
2017-11-06T02:09:28.012Z,95.03
2017-11-06T02:11:57.040Z,95.58
2017-11-06T02:14:25.315Z,95.74
2017-11-06T02:16:53.601Z,95.96
2017-11-06T02:19:21.888Z,97.22
2017-11-06T02:21:50.159Z,96.14
2017-11-06T02:24:18.435Z,95.42
2017-11-06T02:26:46.706Z,95.40
2017-11-06T02:29:14.980Z,94.85
2017-11-06T02:31:43.263Z,95.33
2017-11-06T02:34:11.528Z,95.35
2017-11-06T02:36:41.142Z,95.33
2017-11-06T02:39:09.424Z,95.45
2017-11-06T02:41:37.712Z,95.07
2017-11-06T02:44:05.998Z,94.61
2017-11-06T02:46:34.280Z,95.04
2017-11-06T02:49:02.565Z,95.14
2017-11-06T02:51:30.853Z,96.43
2017-11-06T02:53:59.125Z,96.78
2017-11-06T02:56:28.008Z,96.47
2017-11-06T02:58:57.340Z,97.64
2017-11-06T03:01:25.623Z,97.82
2017-11-06T03:03:54.669Z,97.05
2017-11-06T03:06:22.960Z,96.38
2017-11-06T03:08:51.244Z,95.32
2017-11-06T03:11:19.527Z,95.28
2017-11-06T03:13:47.805Z,95.67
2017-11-06T03:16:16.860Z,95.41
2017-11-06T03:18:45.141Z,95.42
2017-11-06T03:21:13.421Z,95.28
2017-11-06T03:23:41.702Z,95.11
2017-11-06T03:26:09.987Z,94.68
2017-11-06T03:28:38.270Z,94.86
2017-11-06T03:31:06.558Z,94.35
2017-11-06T03:33:34.843Z,94.75
2017-11-06T03:36:03.892Z,96.56
2017-11-06T03:38:32.193Z,96.47
2017-11-06T03:41:00.468Z,96.76
2017-11-06T03:43:28.752Z,96.25
2017-11-06T03:45:57.043Z,96.37
2017-11-06T03:48:26.110Z,96.33
2017-11-06T03:50:54.388Z,95.76
2017-11-06T03:53:22.673Z,95.36
2017-11-06T03:55:50.986Z,95.50
2017-11-06T03:58:19.286Z,95.48
2017-11-06T04:00:47.561Z,96.60
2017-11-06T04:03:15.837Z,96.39
2017-11-06T04:05:44.125Z,95.79
2017-11-06T04:08:12.407Z,96.34
2017-11-06T04:10:40.688Z,96.15
2017-11-06T04:13:09.252Z,96.18
2017-11-06T04:15:37.536Z,96.07
2017-11-06T04:18:05.829Z,97.92
2017-11-06T04:20:34.129Z,98.43
2017-11-06T04:23:02.423Z,97.85
2017-11-06T04:25:30.708Z,97.36
2017-11-06T04:27:58.977Z,96.96
2017-11-06T04:30:27.247Z,96.49
2017-11-06T04:32:56.283Z,95.70
2017-11-06T04:35:24.564Z,96.03
2017-11-06T04:37:52.860Z,95.97
2017-11-06T04:40:21.148Z,96.08
2017-11-06T04:42:49.523Z,96.80
2017-11-06T04:45:17.818Z,96.97
2017-11-06T04:47:46.873Z,97.15
2017-11-06T04:50:15.153Z,96.93
2017-11-06T04:52:43.432Z,96.06
2017-11-06T04:55:11.704Z,95.63
2017-11-06T04:57:39.981Z,95.79
2017-11-06T05:00:08.676Z,95.57
2017-11-06T05:02:36.981Z,95.30
2017-11-06T05:05:05.257Z,95.43
2017-11-06T05:07:34.301Z,95.17
2017-11-06T05:10:02.576Z,95.19
2017-11-06T05:12:30.860Z,95.10
2017-11-06T05:14:59.150Z,95.69
2017-11-06T05:17:27.420Z,95.84
2017-11-06T05:19:55.695Z,96.16
2017-11-06T05:22:24.819Z,96.44
2017-11-06T05:24:53.112Z,97.12
2017-11-06T05:27:22.160Z,96.96
2017-11-06T05:29:50.436Z,97.26
2017-11-06T05:32:18.720Z,97.32
2017-11-06T05:34:47.009Z,97.92
2017-11-06T05:37:15.297Z,97.84
2017-11-06T05:39:44.351Z,97.32
2017-11-06T05:42:12.629Z,97.07
2017-11-06T05:44:40.909Z,96.79
2017-11-06T05:47:09.197Z,95.60
2017-11-06T05:49:37.490Z,95.68
2017-11-06T05:52:05.784Z,95.13
2017-11-06T05:54:34.057Z,95.29
2017-11-06T05:57:03.104Z,95.41
2017-11-06T05:59:31.388Z,95.87
2017-11-06T06:01:59.731Z,95.92
2017-11-06T06:04:28.014Z,95.33
2017-11-06T06:06:56.301Z,94.61
2017-11-06T06:09:24.573Z,94.77
2017-11-06T06:11:52.860Z,94.91
2017-11-06T06:14:21.145Z,94.28
2017-11-06T06:16:49.439Z,94.81
2017-11-06T06:19:17.736Z,95.10
2017-11-06T06:21:46.770Z,95.24
2017-11-06T06:24:15.043Z,95.71
2017-11-06T06:26:43.332Z,95.68
2017-11-06T06:29:11.609Z,96.20
2017-11-06T06:31:39.885Z,95.68
2017-11-06T06:34:08.958Z,95.33
2017-11-06T06:36:37.317Z,95.76
2017-11-06T06:39:06.352Z,95.93
2017-11-06T06:41:36.302Z,95.64
2017-11-06T06:44:04.597Z,95.36
2017-11-06T06:46:33.647Z,95.83
2017-11-06T06:49:01.923Z,96.29
2017-11-06T06:51:30.195Z,96.59
2017-11-06T06:53:58.462Z,97.61
2017-11-06T06:56:26.738Z,97.31
2017-11-06T06:58:55.035Z,97.00
2017-11-06T07:01:23.307Z,96.89
2017-11-06T07:03:51.584Z,96.64
2017-11-06T07:06:19.888Z,96.43
2017-11-06T07:08:48.209Z,96.51
2017-11-06T07:11:16.846Z,95.65
2017-11-06T07:13:45.122Z,96.02
2017-11-06T07:16:14.159Z,95.91
2017-11-06T07:18:42.435Z,95.49
2017-11-06T07:21:10.717Z,94.92
2017-11-06T07:23:40.433Z,95.64
2017-11-06T07:26:08.714Z,95.18
2017-11-06T07:28:37.005Z,94.93
2017-11-06T07:31:05.292Z,94.15
2017-11-06T07:33:33.587Z,94.85
2017-11-06T07:36:01.864Z,95.07
2017-11-06T07:38:30.153Z,94.77
2017-11-06T07:40:59.205Z,94.76
2017-11-06T07:43:27.489Z,94.14
2017-11-06T07:45:55.769Z,94.08
2017-11-06T07:48:24.052Z,93.85
2017-11-06T07:50:52.342Z,93.45
2017-11-06T07:53:22.184Z,93.77
2017-11-06T07:55:50.490Z,93.83
2017-11-06T07:58:18.772Z,95.32
2017-11-06T08:00:47.057Z,94.65
2017-11-06T08:03:15.332Z,93.80
2017-11-06T08:05:44.324Z,92.66
2017-11-06T08:08:12.604Z,92.93
2017-11-06T08:10:41.744Z,92.99
2017-11-06T08:13:10.022Z,91.93
2017-11-06T08:15:38.306Z,91.70
2017-11-06T08:18:06.576Z,91.20
2017-11-06T08:20:34.853Z,91.67
2017-11-06T08:23:03.134Z,92.17
2017-11-06T08:25:31.416Z,92.76
2017-11-06T08:28:00.473Z,92.48
2017-11-06T08:30:29.525Z,90.84
2017-11-06T08:32:57.801Z,90.65
2017-11-06T08:35:26.089Z,90.46
2017-11-06T08:37:54.360Z,91.49
2017-11-06T08:40:22.649Z,91.72
2017-11-06T08:42:50.941Z,91.06
2017-11-06T08:45:19.220Z,91.22
2017-11-06T08:47:47.497Z,91.11
2017-11-06T08:50:16.545Z,90.41
2017-11-06T08:52:44.824Z,91.22
2017-11-06T08:55:13.104Z,90.57
2017-11-06T08:57:41.386Z,90.52
2017-11-06T09:00:09.705Z,90.07
2017-11-06T09:02:39.564Z,90.83
2017-11-06T09:05:07.841Z,90.67
2017-11-06T09:07:36.120Z,89.36
2017-11-06T09:10:04.405Z,90.15
2017-11-06T09:12:32.677Z,88.64
2017-11-06T09:15:00.977Z,88.49
2017-11-06T09:17:29.352Z,89.26
2017-11-06T09:19:57.622Z,90.94
2017-11-06T09:22:25.917Z,90.54
2017-11-06T09:24:54.188Z,90.04
2017-11-06T09:27:22.475Z,90.82
2017-11-06T09:29:51.516Z,91.96
2017-11-06T09:32:19.797Z,95.18
2017-11-06T09:34:48.081Z,96.47
2017-11-06T09:37:16.532Z,94.95
2017-11-06T09:39:44.800Z,93.61
2017-11-06T09:42:13.094Z,92.32
2017-11-06T09:44:41.376Z,92.87
2017-11-06T09:47:09.649Z,91.85
2017-11-06T09:49:37.925Z,91.38
2017-11-06T09:52:06.217Z,89.65
2017-11-06T09:54:34.496Z,89.14
2017-11-06T09:57:02.768Z,89.24
2017-11-06T09:59:31.048Z,89.28
2017-11-06T10:01:59.325Z,88.18
2017-11-06T10:04:27.609Z,85.84
2017-11-06T10:06:55.893Z,86.25
2017-11-06T10:09:24.185Z,85.62
2017-11-06T10:11:52.461Z,85.64
2017-11-06T10:14:20.737Z,85.58
2017-11-06T10:16:48.996Z,83.87
2017-11-06T10:19:17.254Z,84.17
2017-11-06T10:21:45.541Z,83.74
2017-11-06T10:24:13.812Z,82.67
2017-11-06T10:26:42.108Z,82.32
2017-11-06T10:29:10.392Z,80.36
2017-11-06T10:31:38.684Z,80.40
2017-11-06T10:34:06.967Z,80.92
2017-11-06T10:36:35.254Z,80.14
2017-11-06T10:39:03.534Z,81.70
2017-11-06T10:41:31.819Z,81.09
2017-11-06T10:44:00.106Z,81.22
2017-11-06T10:46:28.388Z,80.98
2017-11-06T10:48:56.673Z,81.45
2017-11-06T10:51:25.880Z,81.65
2017-11-06T10:53:54.189Z,79.82
2017-11-06T10:56:23.252Z,79.92
2017-11-06T10:58:51.549Z,80.93
2017-11-06T11:01:19.836Z,77.43
2017-11-06T11:03:48.133Z,79.33
2017-11-06T11:06:16.421Z,80.33
2017-11-06T11:08:44.712Z,80.84
2017-11-06T11:11:13.013Z,78.91
2017-11-06T11:13:41.297Z,79.28
2017-11-06T11:16:10.505Z,76.99
2017-11-06T11:18:38.795Z,78.10
2017-11-06T11:21:07.075Z,77.57
2017-11-06T11:23:35.363Z,76.72
2017-11-06T11:26:03.652Z,77.40
2017-11-06T11:28:31.938Z,74.78
2017-11-06T11:31:00.226Z,73.79
2017-11-06T11:33:28.520Z,72.65
2017-11-06T11:35:56.815Z,72.18
2017-11-06T11:38:25.083Z,71.95
2017-11-06T11:40:53.378Z,72.52
2017-11-06T11:43:22.429Z,73.18
2017-11-06T11:45:50.721Z,75.22
2017-11-06T11:48:19.003Z,75.06
2017-11-06T11:50:47.305Z,75.28
2017-11-06T11:53:15.600Z,74.06
2017-11-06T11:55:43.888Z,73.09
2017-11-06T11:58:12.184Z,72.75
2017-11-06T12:00:40.468Z,73.88
2017-11-06T12:03:08.761Z,72.76
2017-11-06T12:05:37.040Z,73.59
2017-11-06T12:08:05.333Z,72.81
2017-11-06T12:10:33.622Z,72.96
2017-11-06T12:13:02.676Z,73.21
2017-11-06T12:15:30.966Z,72.60
2017-11-06T12:17:59.256Z,72.40
2017-11-06T12:20:27.531Z,72.10
2017-11-06T12:22:55.810Z,73.98
2017-11-06T12:25:24.872Z,73.86
2017-11-06T12:27:53.154Z,75.56
2017-11-06T12:30:21.436Z,73.81
2017-11-06T12:32:49.742Z,73.96
2017-11-06T12:35:18.032Z,76.27
2017-11-06T12:37:47.071Z,76.41
2017-11-06T12:40:15.357Z,75.96
2017-11-06T12:42:43.654Z,75.68
2017-11-06T12:45:11.934Z,76.05
2017-11-06T12:47:41.006Z,75.93
2017-11-06T12:50:10.002Z,76.93
2017-11-06T12:52:39.276Z,76.15
2017-11-06T12:55:07.563Z,75.67
2017-11-06T12:57:35.873Z,76.20
2017-11-06T13:00:04.939Z,76.24
2017-11-06T13:02:33.225Z,75.37
2017-11-06T13:05:03.211Z,75.89
2017-11-06T13:07:31.502Z,75.20
2017-11-06T13:09:59.798Z,75.04
2017-11-06T13:12:28.080Z,74.93
2017-11-06T13:14:56.385Z,75.00
2017-11-06T13:17:24.678Z,75.22
2017-11-06T13:19:52.961Z,74.84
2017-11-06T13:22:21.248Z,73.97
2017-11-06T13:24:49.548Z,71.60
2017-11-06T13:27:17.832Z,71.47
2017-11-06T13:29:46.121Z,70.91
2017-11-06T13:32:14.416Z,68.77
2017-11-06T13:34:43.469Z,70.69
2017-11-06T13:37:11.763Z,70.58
2017-11-06T13:39:40.048Z,70.41
2017-11-06T13:42:08.332Z,69.72
2017-11-06T13:44:36.784Z,70.32
2017-11-06T13:47:05.121Z,69.79
2017-11-06T13:49:33.412Z,70.36
2017-11-06T13:52:01.696Z,68.81
2017-11-06T13:54:29.976Z,69.91
2017-11-06T13:56:58.261Z,70.51
2017-11-06T13:59:26.564Z,73.53
2017-11-06T14:01:55.616Z,74.44
2017-11-06T14:04:23.896Z,74.04
2017-11-06T14:06:52.172Z,76.30
2017-11-06T14:09:20.465Z,75.68
2017-11-06T14:11:48.769Z,74.18
2017-11-06T14:14:17.821Z,73.79
2017-11-06T14:16:46.109Z,72.75
2017-11-06T14:19:14.411Z,71.98
2017-11-06T14:21:42.700Z,72.56
2017-11-06T14:24:10.984Z,70.81
2017-11-06T14:26:39.273Z,70.42
2017-11-06T14:29:07.556Z,71.83
2017-11-06T14:31:35.832Z,71.42
2017-11-06T14:34:04.117Z,71.74
2017-11-06T14:36:32.437Z,71.75
2017-11-06T14:39:00.713Z,72.96
2017-11-06T14:41:29.003Z,74.72
2017-11-06T14:43:58.056Z,75.57
2017-11-06T14:46:26.335Z,75.99
2017-11-06T14:48:54.620Z,77.87
2017-11-06T14:51:22.913Z,79.03
2017-11-06T14:53:51.204Z,79.13
2017-11-06T14:56:20.252Z,80.00
2017-11-06T14:58:48.549Z,80.07
2017-11-06T15:01:16.853Z,79.89
2017-11-06T15:03:45.164Z,79.83
2017-11-06T15:06:13.445Z,80.05
2017-11-06T15:08:41.735Z,80.09
2017-11-06T15:11:10.005Z,79.80
2017-11-06T15:13:38.305Z,79.87
2017-11-06T15:16:06.580Z,80.63
2017-11-06T15:18:34.858Z,81.13
2017-11-06T15:21:03.154Z,81.19
2017-11-06T15:23:31.433Z,82.51
2017-11-06T15:26:00.468Z,81.54
2017-11-06T15:28:30.013Z,81.72
2017-11-06T15:30:58.289Z,81.69
2017-11-06T15:33:26.600Z,83.43
2017-11-06T15:35:54.888Z,83.56
2017-11-06T15:38:23.160Z,82.10
2017-11-06T15:40:51.434Z,81.76
2017-11-06T15:43:19.708Z,81.48
2017-11-06T15:45:47.988Z,81.50
2017-11-06T15:48:16.285Z,82.17
2017-11-06T15:50:44.566Z,82.88
2017-11-06T15:53:12.856Z,83.81
2017-11-06T15:55:41.908Z,83.33
2017-11-06T15:58:10.185Z,83.34
2017-11-06T16:00:38.481Z,83.91
2017-11-06T16:03:06.772Z,83.86
2017-11-06T16:05:35.075Z,84.10
2017-11-06T16:08:03.341Z,83.84
2017-11-06T16:10:31.620Z,83.71
2017-11-06T16:12:59.894Z,84.20
2017-11-06T16:15:28.169Z,83.63
2017-11-06T16:17:56.453Z,84.48
2017-11-06T16:20:24.745Z,84.09
2017-11-06T16:22:53.030Z,84.17
2017-11-06T16:25:22.084Z,84.80
2017-11-06T16:27:50.393Z,85.29
2017-11-06T16:30:18.660Z,86.90
2017-11-06T16:32:46.951Z,87.18
2017-11-06T16:35:15.213Z,87.39
2017-11-06T16:37:43.493Z,87.86
2017-11-06T16:40:11.787Z,87.74
2017-11-06T16:42:40.832Z,86.87
2017-11-06T16:45:09.112Z,86.78
2017-11-06T16:47:37.389Z,87.10
2017-11-06T16:50:05.669Z,87.42
2017-11-06T16:52:33.946Z,88.03
2017-11-06T16:55:02.232Z,90.71
2017-11-06T16:57:30.521Z,90.19
2017-11-06T16:59:58.805Z,89.15
2017-11-06T17:02:27.889Z,89.31
2017-11-06T17:04:56.173Z,89.82
2017-11-06T17:07:25.298Z,90.08
2017-11-06T17:09:53.572Z,89.59
2017-11-06T17:12:22.788Z,89.20
2017-11-06T17:14:51.064Z,88.29
2017-11-06T17:17:19.344Z,88.43
2017-11-06T17:19:47.618Z,87.79
2017-11-06T17:22:15.917Z,88.12
2017-11-06T17:24:44.201Z,88.39
2017-11-06T17:27:12.485Z,89.80
2017-11-06T17:29:40.777Z,90.48
2017-11-06T17:32:09.046Z,90.38
2017-11-06T17:34:37.454Z,90.10
2017-11-06T17:37:05.922Z,90.96
2017-11-06T17:39:34.398Z,91.23
2017-11-06T17:42:03.025Z,90.72
2017-11-06T17:44:32.832Z,90.37
2017-11-06T17:47:01.126Z,89.93
2017-11-06T17:49:29.505Z,89.34
2017-11-06T17:51:58.073Z,90.00
2017-11-06T17:54:26.356Z,90.31
2017-11-06T17:56:54.640Z,91.66
2017-11-06T17:59:22.924Z,90.66
2017-11-06T18:01:51.816Z,90.58
2017-11-06T18:04:20.170Z,89.37
2017-11-06T18:06:48.515Z,90.88
2017-11-06T18:09:18.141Z,90.13
2017-11-06T18:11:46.504Z,90.78
2017-11-06T18:14:14.784Z,90.92
2017-11-06T18:16:44.039Z,90.85
2017-11-06T18:19:12.394Z,91.03
2017-11-06T18:21:43.267Z,91.03
2017-11-06T18:24:13.309Z,91.19
2017-11-06T18:26:43.112Z,91.13
2017-11-06T18:29:11.518Z,90.10
2017-11-06T18:31:39.867Z,89.55
2017-11-06T18:34:08.989Z,90.63
2017-11-06T18:36:37.293Z,91.19
2017-11-06T18:39:05.620Z,93.45
2017-11-06T18:41:34.809Z,94.98
2017-11-06T18:44:03.154Z,95.03
2017-11-06T18:46:31.612Z,93.56
2017-11-06T18:49:01.173Z,93.24
2017-11-06T18:51:29.887Z,94.41
2017-11-06T18:53:59.833Z,95.05
2017-11-06T18:56:29.616Z,95.25
2017-11-06T18:58:59.039Z,95.32
2017-11-06T19:01:29.232Z,95.95
2017-11-06T19:03:57.718Z,95.90
2017-11-06T19:06:26.261Z,94.94
2017-11-06T19:08:55.570Z,93.92
2017-11-06T19:11:24.953Z,93.54
2017-11-06T19:13:54.574Z,92.81
2017-11-06T19:16:24.193Z,92.47
2017-11-06T19:18:53.949Z,94.31
2017-11-06T19:21:24.678Z,95.02
2017-11-06T19:23:55.659Z,94.21
2017-11-06T19:26:25.169Z,93.60
2017-11-06T19:28:54.796Z,93.86
2017-11-06T19:31:24.523Z,94.40
2017-11-06T19:33:55.139Z,93.29
2017-11-06T19:36:24.870Z,92.61
2017-11-06T19:38:54.648Z,94.84
2017-11-06T19:41:24.593Z,94.39
2017-11-06T19:43:56.524Z,94.31
2017-11-06T19:46:27.423Z,93.88
2017-11-06T19:48:57.339Z,93.66
2017-11-06T19:51:27.210Z,93.04
2017-11-06T19:53:57.878Z,92.45
2017-11-06T19:56:27.748Z,92.42
2017-11-06T19:58:58.084Z,93.14
2017-11-06T20:01:27.934Z,92.59
2017-11-06T20:03:57.842Z,92.39
2017-11-06T20:06:27.682Z,94.02
2017-11-06T20:08:57.878Z,93.70
2017-11-06T20:11:27.905Z,94.21
2017-11-06T20:13:57.709Z,95.12
2017-11-06T20:16:27.560Z,95.99
2017-11-06T20:18:58.224Z,95.76
2017-11-06T20:21:28.146Z,95.00
2017-11-06T20:23:58.081Z,95.63
2017-11-06T20:26:27.931Z,95.94
2017-11-06T20:28:57.715Z,94.85
2017-11-06T20:31:27.701Z,94.30
2017-11-06T20:33:58.990Z,93.31
2017-11-06T20:36:28.886Z,93.58
2017-11-06T20:38:58.745Z,93.06
2017-11-06T20:41:28.626Z,93.87
2017-11-06T20:43:58.610Z,94.04
2017-11-06T20:46:29.174Z,94.98
2017-11-06T20:48:59.269Z,94.29
2017-11-06T20:51:29.070Z,93.91
2017-11-06T20:53:58.871Z,93.05
2017-11-06T20:56:29.649Z,91.96
2017-11-06T20:58:59.633Z,91.61
2017-11-06T21:01:30.359Z,90.71
2017-11-06T21:04:00.163Z,90.22
2017-11-06T21:06:29.967Z,89.52
2017-11-06T21:09:00.659Z,90.36
2017-11-06T21:11:30.337Z,90.75
2017-11-06T21:14:00.093Z,91.06
2017-11-06T21:16:29.829Z,92.03
2017-11-06T21:19:00.738Z,93.09
2017-11-06T21:21:30.510Z,93.04
2017-11-06T21:24:01.000Z,93.25
2017-11-06T21:26:30.715Z,93.38
2017-11-06T21:29:00.353Z,93.95
2017-11-06T21:31:30.951Z,95.06
2017-11-06T21:34:00.641Z,94.79
2017-11-06T21:36:30.392Z,94.14
2017-11-06T21:39:00.024Z,93.24
2017-11-06T21:41:28.841Z,93.55
2017-11-06T21:43:58.129Z,93.84
2017-11-06T21:46:26.554Z,94.67
2017-11-06T21:48:54.926Z,94.87
2017-11-06T21:51:23.220Z,94.71
2017-11-06T21:53:51.526Z,94.99
2017-11-06T21:56:19.840Z,94.64
2017-11-06T21:58:48.148Z,94.44
2017-11-06T22:01:16.424Z,95.46
2017-11-06T22:03:44.717Z,95.20
2017-11-06T22:06:13.001Z,96.21
2017-11-06T22:08:41.300Z,96.42
2017-11-06T22:11:09.584Z,96.91
2017-11-06T22:13:37.865Z,96.49
2017-11-06T22:16:06.176Z,96.01
2017-11-06T22:18:34.474Z,97.69
2017-11-06T22:21:02.767Z,97.74
2017-11-06T22:23:31.056Z,98.17
2017-11-06T22:25:59.341Z,97.38
2017-11-06T22:28:27.648Z,99.01
2017-11-06T22:30:56.696Z,99.11
2017-11-06T22:33:24.976Z,97.63
2017-11-06T22:35:53.262Z,95.76
2017-11-06T22:38:22.070Z,96.18
2017-11-06T22:40:50.404Z,96.74
2017-11-06T22:43:18.670Z,96.51
2017-11-06T22:45:46.956Z,96.66
2017-11-06T22:48:15.227Z,97.01
2017-11-06T22:50:43.502Z,96.37
2017-11-06T22:53:11.780Z,96.36
2017-11-06T22:55:40.055Z,95.89
2017-11-06T22:58:08.327Z,96.56
2017-11-06T23:00:36.609Z,96.46
2017-11-06T23:03:04.921Z,95.83
2017-11-06T23:05:33.189Z,95.60
2017-11-06T23:08:01.458Z,96.01
2017-11-06T23:10:29.731Z,95.60
2017-11-06T23:12:58.012Z,95.25
2017-11-06T23:15:26.297Z,94.78
2017-11-06T23:17:55.256Z,95.70
2017-11-06T23:20:23.557Z,95.90
2017-11-06T23:22:52.859Z,96.46
2017-11-06T23:25:21.160Z,95.98
2017-11-06T23:27:49.432Z,95.42
2017-11-06T23:30:17.724Z,98.30
2017-11-06T23:32:46.777Z,99.15
2017-11-06T23:35:15.062Z,98.61
2017-11-06T23:37:43.362Z,98.10
2017-11-06T23:40:13.158Z,97.22
2017-11-06T23:42:41.433Z,98.83
2017-11-06T23:45:09.707Z,99.36
2017-11-06T23:47:38.015Z,98.62
2017-11-06T23:50:06.296Z,98.52
2017-11-06T23:52:35.343Z,97.68
2017-11-06T23:55:03.607Z,96.59
2017-11-06T23:57:31.900Z,95.72
